createdAt,value
2023-10-21T00:00:30.331Z,0.00
2023-10-21T00:01:30.327Z,0.00
2023-10-21T00:02:30.284Z,0.00
2023-10-21T00:03:30.447Z,0.00
2023-10-21T00:04:30.298Z,0.00
2023-10-21T00:05:30.267Z,0.00
2023-10-21T00:06:30.230Z,0.00
2023-10-21T00:07:30.219Z,0.00
2023-10-21T00:08:30.281Z,0.00
2023-10-21T00:09:30.222Z,0.00
2023-10-21T00:10:30.215Z,0.00
2023-10-21T00:11:30.174Z,0.00
2023-10-21T00:12:30.218Z,0.00
2023-10-21T00:13:30.195Z,0.00
2023-10-21T00:14:30.154Z,0.00
2023-10-21T00:15:30.131Z,0.00
2023-10-21T00:16:30.173Z,0.00
2023-10-21T00:17:30.184Z,0.00
2023-10-21T00:18:30.331Z,0.00
2023-10-21T00:19:30.111Z,0.00
2023-10-21T00:20:30.121Z,0.00
2023-10-21T00:21:30.084Z,0.00
2023-10-21T00:22:30.060Z,0.00
2023-10-21T00:23:30.048Z,0.00
2023-10-21T00:24:30.069Z,0.00
2023-10-21T00:25:30.041Z,0.00
2023-10-21T00:26:30.098Z,0.00
2023-10-21T00:27:30.068Z,0.00
2023-10-21T00:28:29.994Z,0.00
2023-10-21T00:29:29.979Z,0.00
2023-10-21T00:30:29.968Z,0.00
2023-10-21T00:31:30.018Z,0.00
2023-10-21T00:32:30.016Z,0.00
2023-10-21T00:33:30.011Z,0.00
2023-10-21T00:34:29.957Z,0.00
2023-10-21T00:35:29.928Z,0.00
2023-10-21T00:36:29.925Z,0.00
2023-10-21T00:37:29.902Z,0.00
2023-10-21T00:38:29.923Z,0.00
2023-10-21T00:39:29.879Z,0.00
2023-10-21T00:40:29.884Z,0.00
2023-10-21T00:41:29.865Z,0.00
2023-10-21T00:42:29.836Z,0.00
2023-10-21T00:43:29.882Z,0.00
2023-10-21T00:44:29.814Z,0.00
2023-10-21T00:45:29.801Z,0.00
2023-10-21T00:46:29.822Z,0.00
2023-10-21T00:47:29.811Z,0.00
2023-10-21T00:48:29.880Z,0.00
2023-10-21T00:49:29.761Z,0.00
2023-10-21T00:50:29.750Z,0.00
2023-10-21T00:51:29.740Z,0.00
2023-10-21T00:52:29.747Z,0.00
2023-10-21T00:53:29.820Z,0.00
2023-10-21T00:54:29.708Z,0.00
2023-10-21T00:55:29.717Z,0.00
2023-10-21T00:56:29.701Z,0.00
2023-10-21T00:57:29.718Z,0.00
2023-10-21T00:58:29.697Z,0.00
2023-10-21T00:59:29.648Z,0.00
2023-10-21T01:00:29.655Z,0.00
2023-10-21T01:01:29.684Z,0.00
2023-10-21T01:02:29.774Z,0.00
2023-10-21T01:03:29.727Z,0.00
2023-10-21T01:04:29.712Z,0.00
2023-10-21T01:05:29.595Z,0.00
2023-10-21T01:06:29.599Z,0.00
2023-10-21T01:07:29.563Z,0.00
2023-10-21T01:08:29.577Z,0.00
2023-10-21T01:09:29.546Z,0.00
2023-10-21T01:10:29.536Z,0.00
2023-10-21T01:11:29.557Z,0.00
2023-10-21T01:12:29.521Z,0.00
2023-10-21T01:13:29.499Z,0.00
2023-10-21T01:14:29.524Z,0.00
2023-10-21T01:15:29.481Z,0.00
2023-10-21T01:16:29.566Z,0.00
2023-10-21T01:17:29.537Z,0.00
2023-10-21T01:18:29.533Z,0.00
2023-10-21T01:19:29.452Z,0.00
2023-10-21T01:20:29.437Z,0.00
2023-10-21T01:21:29.445Z,0.00
2023-10-21T01:22:29.407Z,0.00
2023-10-21T01:23:29.400Z,0.00
2023-10-21T01:24:29.412Z,0.00
2023-10-21T01:25:29.432Z,0.00
2023-10-21T01:26:29.387Z,0.00
2023-10-21T01:27:29.381Z,0.00
2023-10-21T01:28:29.346Z,0.00
2023-10-21T01:29:29.347Z,0.00
2023-10-21T01:30:29.339Z,0.00
2023-10-21T01:31:29.317Z,0.00
2023-10-21T01:32:29.333Z,0.00
2023-10-21T01:33:29.448Z,0.00
2023-10-21T01:34:29.370Z,0.00
2023-10-21T01:35:29.290Z,0.00
2023-10-21T01:36:29.295Z,0.00
2023-10-21T01:37:29.256Z,0.00
2023-10-21T01:38:29.242Z,0.00
2023-10-21T01:39:29.262Z,0.00
2023-10-21T01:40:29.269Z,0.00
2023-10-21T01:41:29.230Z,0.00
2023-10-21T01:42:29.215Z,0.00
2023-10-21T01:43:29.197Z,0.00
2023-10-21T01:44:29.205Z,0.00
2023-10-21T01:45:29.168Z,0.00
2023-10-21T01:46:29.218Z,0.00
2023-10-21T01:47:29.151Z,0.00
2023-10-21T01:48:29.156Z,0.00
2023-10-21T01:49:29.119Z,0.00
2023-10-21T01:50:29.118Z,0.00
2023-10-21T01:51:29.098Z,0.00
2023-10-21T01:52:29.121Z,0.00
2023-10-21T01:53:29.073Z,0.00
2023-10-21T01:54:29.061Z,0.00
2023-10-21T01:55:29.050Z,0.00
2023-10-21T01:56:29.063Z,0.00
2023-10-21T01:57:29.056Z,0.00
2023-10-21T01:58:29.028Z,0.00
2023-10-21T01:59:29.005Z,0.00
2023-10-21T02:00:29.056Z,0.00
2023-10-21T02:01:29.098Z,0.00
2023-10-21T02:02:29.053Z,0.00
2023-10-21T02:03:29.067Z,0.00
2023-10-21T02:04:28.959Z,0.00
2023-10-21T02:05:28.981Z,0.00
2023-10-21T02:06:28.937Z,0.00
2023-10-21T02:07:28.919Z,0.00
2023-10-21T02:08:28.917Z,0.00
2023-10-21T02:09:28.893Z,0.00
2023-10-21T02:10:28.920Z,0.00
2023-10-21T02:11:28.885Z,0.00
2023-10-21T02:12:29.472Z,0.00
2023-10-21T02:13:28.858Z,0.00
2023-10-21T02:14:28.845Z,0.00
2023-10-21T02:15:28.862Z,0.00
2023-10-21T02:16:28.829Z,0.00
2023-10-21T02:17:28.848Z,0.00
2023-10-21T02:18:28.855Z,0.00
2023-10-21T02:19:28.782Z,0.00
2023-10-21T02:20:28.789Z,0.00
2023-10-21T02:21:28.791Z,0.00
2023-10-21T02:22:28.835Z,0.00
2023-10-21T02:23:28.760Z,0.00
2023-10-21T02:24:28.734Z,0.00
2023-10-21T02:25:28.729Z,0.00
2023-10-21T02:26:28.761Z,0.00
2023-10-21T02:27:28.722Z,0.00
2023-10-21T02:28:28.753Z,0.00
2023-10-21T02:29:28.673Z,0.00
2023-10-21T02:30:28.666Z,0.00
2023-10-21T02:31:28.783Z,0.00
2023-10-21T02:32:28.692Z,0.00
2023-10-21T02:33:28.738Z,0.00
2023-10-21T02:34:28.616Z,0.00
2023-10-21T02:35:28.632Z,0.00
2023-10-21T02:36:28.598Z,0.00
2023-10-21T02:37:28.617Z,0.00
2023-10-21T02:38:28.579Z,0.00
2023-10-21T02:39:28.558Z,0.00
2023-10-21T02:40:28.561Z,0.00
2023-10-21T02:41:28.547Z,0.00
2023-10-21T02:42:28.558Z,0.00
2023-10-21T02:43:28.570Z,0.00
2023-10-21T02:44:29.712Z,0.00
2023-10-21T02:45:28.602Z,0.00
2023-10-21T02:46:28.491Z,0.00
2023-10-21T02:47:28.514Z,0.00
2023-10-21T02:48:28.572Z,0.00
2023-10-21T02:49:28.466Z,0.00
2023-10-21T02:50:28.475Z,0.00
2023-10-21T02:51:28.458Z,0.00
2023-10-21T02:52:28.441Z,0.00
2023-10-21T02:53:28.442Z,0.00
2023-10-21T02:54:28.412Z,0.00
2023-10-21T02:55:28.408Z,0.00
2023-10-21T02:56:28.388Z,0.00
2023-10-21T02:57:28.374Z,0.00
2023-10-21T02:58:28.439Z,0.00
2023-10-21T02:59:28.358Z,0.00
2023-10-21T03:00:28.394Z,0.00
2023-10-21T03:01:28.375Z,0.00
2023-10-21T03:02:28.438Z,0.00
2023-10-21T03:03:28.426Z,0.00
2023-10-21T03:04:28.303Z,0.00
2023-10-21T03:05:28.294Z,0.00
2023-10-21T03:06:28.310Z,0.00
2023-10-21T03:07:28.277Z,0.00
2023-10-21T03:08:28.295Z,0.00
2023-10-21T03:09:28.344Z,0.00
2023-10-21T03:10:28.241Z,0.00
2023-10-21T03:11:28.226Z,0.00
2023-10-21T03:12:28.252Z,0.00
2023-10-21T03:13:28.259Z,0.00
2023-10-21T03:14:28.195Z,0.00
2023-10-21T03:15:28.269Z,0.00
2023-10-21T03:16:28.206Z,0.00
2023-10-21T03:17:28.246Z,0.00
2023-10-21T03:18:28.307Z,0.00
2023-10-21T03:19:28.140Z,0.00
2023-10-21T03:20:28.133Z,0.00
2023-10-21T03:21:28.119Z,0.00
2023-10-21T03:22:28.115Z,0.00
2023-10-21T03:23:28.144Z,0.00
2023-10-21T03:24:28.080Z,0.00
2023-10-21T03:25:28.071Z,0.00
2023-10-21T03:26:28.064Z,0.00
2023-10-21T03:27:28.065Z,0.00
2023-10-21T03:28:28.036Z,0.00
2023-10-21T03:29:28.049Z,0.00
2023-10-21T03:30:28.018Z,0.00
2023-10-21T03:31:28.033Z,0.00
2023-10-21T03:32:28.045Z,0.00
2023-10-21T03:33:28.191Z,0.00
2023-10-21T03:34:28.000Z,0.00
2023-10-21T03:35:28.009Z,0.00
2023-10-21T03:36:27.944Z,0.00
2023-10-21T03:37:27.961Z,0.00
2023-10-21T03:38:27.924Z,0.00
2023-10-21T03:39:28.007Z,0.00
2023-10-21T03:40:27.898Z,0.00
2023-10-21T03:41:27.894Z,0.00
2023-10-21T03:42:27.881Z,0.00
2023-10-21T03:43:27.873Z,0.00
2023-10-21T03:44:27.891Z,0.00
2023-10-21T03:45:27.840Z,0.00
2023-10-21T03:46:27.916Z,0.00
2023-10-21T03:47:27.872Z,0.00
2023-10-21T03:48:27.944Z,0.00
2023-10-21T03:49:27.874Z,0.00
2023-10-21T03:50:27.844Z,0.00
2023-10-21T03:51:27.827Z,0.00
2023-10-21T03:52:27.780Z,0.00
2023-10-21T03:53:27.812Z,0.00
2023-10-21T03:54:27.899Z,0.00
2023-10-21T03:55:27.768Z,0.00
2023-10-21T03:56:27.745Z,0.00
2023-10-21T03:57:27.845Z,0.00
2023-10-21T03:58:27.719Z,0.00
2023-10-21T03:59:27.756Z,0.00
2023-10-21T04:00:27.752Z,0.00
2023-10-21T04:01:27.727Z,0.00
2023-10-21T04:02:27.688Z,0.00
2023-10-21T04:03:27.811Z,0.00
2023-10-21T04:04:27.735Z,0.00
2023-10-21T04:05:27.623Z,0.00
2023-10-21T04:06:27.697Z,0.00
2023-10-21T04:07:27.606Z,0.00
2023-10-21T04:08:27.596Z,0.00
2023-10-21T04:09:27.650Z,0.00
2023-10-21T04:10:27.599Z,0.00
2023-10-21T04:11:27.567Z,0.00
2023-10-21T04:12:27.583Z,0.00
2023-10-21T04:13:27.572Z,0.00
2023-10-21T04:14:27.567Z,0.00
2023-10-21T04:15:27.548Z,0.00
2023-10-21T04:16:27.537Z,0.00
2023-10-21T04:17:27.533Z,0.00
2023-10-21T04:18:27.621Z,0.00
2023-10-21T04:19:27.472Z,0.00
2023-10-21T04:20:27.508Z,0.00
2023-10-21T04:21:27.487Z,0.00
2023-10-21T04:22:27.448Z,0.00
2023-10-21T04:23:27.481Z,0.00
2023-10-21T04:24:27.457Z,0.00
2023-10-21T04:25:27.436Z,0.00
2023-10-21T04:26:27.408Z,0.00
2023-10-21T04:27:27.441Z,0.00
2023-10-21T04:28:27.397Z,0.00
2023-10-21T04:29:27.362Z,0.00
2023-10-21T04:30:27.418Z,0.00
2023-10-21T04:31:27.410Z,0.00
2023-10-21T04:32:28.977Z,0.00
2023-10-21T04:33:27.469Z,0.00
2023-10-21T04:34:27.342Z,0.00
2023-10-21T04:35:27.334Z,0.00
2023-10-21T04:36:27.335Z,0.00
2023-10-21T04:37:27.280Z,0.00
2023-10-21T04:38:27.309Z,0.00
2023-10-21T04:39:27.292Z,0.00
2023-10-21T04:40:27.293Z,0.00
2023-10-21T04:41:27.258Z,0.00
2023-10-21T04:42:27.322Z,0.00
2023-10-21T04:43:27.219Z,0.00
2023-10-21T04:44:27.227Z,0.00
2023-10-21T04:45:27.263Z,0.00
2023-10-21T04:46:27.229Z,0.00
2023-10-21T04:47:27.204Z,0.00
2023-10-21T04:48:27.307Z,0.00
2023-10-21T04:49:27.165Z,0.00
2023-10-21T04:50:28.398Z,0.00
2023-10-21T04:51:27.172Z,0.00
2023-10-21T04:52:27.139Z,0.00
2023-10-21T04:53:27.122Z,0.00
2023-10-21T04:54:27.135Z,0.00
2023-10-21T04:55:27.113Z,0.00
2023-10-21T04:56:27.103Z,0.00
2023-10-21T04:57:27.169Z,0.00
2023-10-21T04:58:27.076Z,0.00
2023-10-21T04:59:27.069Z,0.00
2023-10-21T05:00:27.091Z,0.00
2023-10-21T05:01:27.054Z,0.00
2023-10-21T05:02:27.044Z,0.00
2023-10-21T05:03:27.176Z,0.00
2023-10-21T05:04:27.173Z,0.00
2023-10-21T05:05:26.977Z,0.00
2023-10-21T05:06:27.030Z,0.00
2023-10-21T05:07:26.954Z,0.00
2023-10-21T05:08:26.962Z,0.00
2023-10-21T05:09:27.032Z,0.00
2023-10-21T05:10:26.926Z,0.00
2023-10-21T05:11:26.908Z,0.00
2023-10-21T05:12:26.963Z,0.00
2023-10-21T05:13:26.881Z,0.00
2023-10-21T05:14:26.873Z,0.00
2023-10-21T05:15:26.902Z,0.00
2023-10-21T05:16:26.888Z,0.00
2023-10-21T05:17:26.871Z,0.00
2023-10-21T05:18:26.861Z,0.00
2023-10-21T05:19:26.828Z,0.00
2023-10-21T05:20:26.810Z,0.00
2023-10-21T05:21:26.853Z,0.00
2023-10-21T05:22:26.785Z,0.00
2023-10-21T05:23:26.793Z,0.00
2023-10-21T05:24:26.849Z,0.00
2023-10-21T05:25:26.759Z,0.00
2023-10-21T05:26:26.757Z,0.00
2023-10-21T05:27:26.864Z,0.00
2023-10-21T05:28:26.724Z,0.00
2023-10-21T05:29:26.710Z,0.00
2023-10-21T05:30:26.737Z,0.00
2023-10-21T05:31:26.759Z,0.00
2023-10-21T05:32:26.731Z,0.00
2023-10-21T05:33:26.778Z,0.00
2023-10-21T05:34:26.717Z,0.00
2023-10-21T05:35:26.656Z,0.00
2023-10-21T05:36:26.714Z,0.00
2023-10-21T05:37:26.623Z,0.00
2023-10-21T05:38:26.618Z,0.00
2023-10-21T05:39:26.639Z,0.00
2023-10-21T05:40:26.622Z,0.00
2023-10-21T05:41:26.609Z,0.00
2023-10-21T05:42:26.618Z,0.00
2023-10-21T05:43:26.560Z,0.00
2023-10-21T05:44:37.453Z,0.00
2023-10-21T05:45:27.612Z,0.00
2023-10-21T05:46:26.594Z,0.00
2023-10-21T05:47:26.566Z,0.00
2023-10-21T05:48:26.626Z,0.00
2023-10-21T05:49:26.530Z,0.00
2023-10-21T05:50:26.483Z,0.00
2023-10-21T05:51:26.562Z,0.00
2023-10-21T05:52:26.464Z,0.00
2023-10-21T05:53:26.453Z,0.00
2023-10-21T05:54:26.546Z,5.62
2023-10-21T05:55:26.437Z,5.62
2023-10-21T05:56:26.450Z,5.62
2023-10-21T05:57:26.453Z,5.62
2023-10-21T05:58:31.171Z,5.62
2023-10-21T05:59:27.415Z,5.62
2023-10-21T06:00:26.525Z,5.62
2023-10-21T06:01:26.381Z,5.62
2023-10-21T06:02:26.361Z,5.62
2023-10-21T06:03:26.399Z,5.62
2023-10-21T06:04:26.509Z,11.25
2023-10-21T06:05:26.355Z,11.25
2023-10-21T06:06:26.355Z,11.25
2023-10-21T06:07:26.304Z,11.25
2023-10-21T06:08:26.288Z,11.25
2023-10-21T06:09:26.336Z,11.25
2023-10-21T06:10:26.300Z,11.25
2023-10-21T06:11:26.253Z,11.25
2023-10-21T06:12:26.306Z,11.25
2023-10-21T06:13:26.256Z,11.25
2023-10-21T06:14:26.225Z,16.88
2023-10-21T06:15:26.313Z,16.88
2023-10-21T06:16:26.226Z,16.88
2023-10-21T06:17:26.246Z,16.88
2023-10-21T06:18:26.254Z,16.88
2023-10-21T06:19:26.166Z,16.88
2023-10-21T06:20:26.196Z,16.88
2023-10-21T06:21:26.197Z,22.50
2023-10-21T06:22:26.141Z,22.50
2023-10-21T06:23:26.150Z,22.50
2023-10-21T06:24:26.133Z,22.50
2023-10-21T06:25:26.133Z,22.50
2023-10-21T06:26:26.132Z,22.50
2023-10-21T06:27:26.120Z,22.50
2023-10-21T06:28:26.090Z,16.88
2023-10-21T06:29:26.060Z,22.50
2023-10-21T06:30:26.126Z,22.50
2023-10-21T06:31:26.045Z,22.50
2023-10-21T06:32:26.034Z,22.50
2023-10-21T06:33:26.180Z,22.50
2023-10-21T06:34:26.029Z,22.50
2023-10-21T06:35:26.005Z,22.50
2023-10-21T06:36:26.051Z,22.50
2023-10-21T06:37:25.960Z,22.50
2023-10-21T06:38:25.956Z,22.50
2023-10-21T06:39:26.036Z,28.12
2023-10-21T06:40:41.108Z,28.12
2023-10-21T06:41:26.957Z,28.12
2023-10-21T06:42:26.008Z,28.12
2023-10-21T06:43:25.939Z,33.75
2023-10-21T06:44:25.914Z,33.75
2023-10-21T06:45:26.016Z,33.75
2023-10-21T06:46:25.913Z,33.75
2023-10-21T06:47:25.894Z,33.75
2023-10-21T06:48:25.974Z,28.12
2023-10-21T06:49:25.845Z,28.12
2023-10-21T06:50:25.832Z,28.12
2023-10-21T06:51:25.876Z,28.12
2023-10-21T06:52:25.805Z,28.12
2023-10-21T06:53:25.794Z,22.50
2023-10-21T06:54:25.841Z,16.88
2023-10-21T06:55:25.813Z,16.88
2023-10-21T06:56:25.775Z,22.50
2023-10-21T06:57:25.822Z,39.38
2023-10-21T06:58:25.738Z,22.50
2023-10-21T06:59:25.737Z,33.75
2023-10-21T07:00:25.814Z,28.12
2023-10-21T07:01:25.809Z,33.75
2023-10-21T07:02:25.705Z,28.12
2023-10-21T07:03:25.754Z,28.12
2023-10-21T07:04:25.675Z,28.12
2023-10-21T07:05:25.691Z,22.50
2023-10-21T07:06:25.730Z,28.12
2023-10-21T07:07:25.663Z,28.12
2023-10-21T07:08:25.623Z,28.12
2023-10-21T07:09:25.646Z,28.12
2023-10-21T07:10:25.611Z,33.75
2023-10-21T07:11:25.635Z,33.75
2023-10-21T07:12:25.642Z,33.75
2023-10-21T07:13:25.582Z,28.12
2023-10-21T07:14:25.565Z,28.12
2023-10-21T07:15:25.641Z,28.12
2023-10-21T07:16:25.747Z,28.12
2023-10-21T07:17:25.579Z,33.75
2023-10-21T07:18:25.570Z,33.75
2023-10-21T07:19:25.555Z,33.75
2023-10-21T07:20:25.500Z,33.75
2023-10-21T07:21:25.584Z,39.38
2023-10-21T07:22:25.479Z,33.75
2023-10-21T07:23:25.477Z,33.75
2023-10-21T07:24:25.611Z,39.38
2023-10-21T07:25:25.584Z,39.38
2023-10-21T07:26:25.455Z,45.00
2023-10-21T07:27:25.458Z,45.00
2023-10-21T07:28:25.478Z,39.38
2023-10-21T07:29:25.420Z,39.38
2023-10-21T07:30:25.414Z,50.62
2023-10-21T07:31:25.435Z,45.00
2023-10-21T07:32:25.391Z,50.62
2023-10-21T07:33:25.464Z,56.25
2023-10-21T07:34:25.354Z,50.62
2023-10-21T07:35:25.340Z,45.00
2023-10-21T07:36:25.369Z,45.00
2023-10-21T07:37:25.785Z,45.00
2023-10-21T07:38:25.312Z,50.62
2023-10-21T07:39:25.353Z,50.62
2023-10-21T07:40:25.302Z,45.00
2023-10-21T07:41:25.308Z,45.00
2023-10-21T07:42:25.345Z,45.00
2023-10-21T07:43:25.251Z,45.00
2023-10-21T07:44:25.252Z,45.00
2023-10-21T07:45:25.266Z,39.38
2023-10-21T07:46:25.303Z,39.38
2023-10-21T07:47:25.260Z,45.00
2023-10-21T07:48:25.278Z,39.38
2023-10-21T07:49:25.187Z,33.75
2023-10-21T07:50:25.174Z,33.75
2023-10-21T07:51:25.202Z,39.38
2023-10-21T07:52:25.178Z,39.38
2023-10-21T07:53:25.170Z,33.75
2023-10-21T07:54:25.199Z,39.38
2023-10-21T07:55:25.124Z,39.38
2023-10-21T07:56:25.107Z,39.38
2023-10-21T07:57:25.164Z,39.38
2023-10-21T07:58:25.122Z,45.00
2023-10-21T07:59:25.080Z,50.62
2023-10-21T08:00:25.110Z,45.00
2023-10-21T08:01:25.076Z,39.38
2023-10-21T08:02:25.104Z,39.38
2023-10-21T08:03:25.132Z,39.38
2023-10-21T08:04:25.105Z,50.62
2023-10-21T08:05:25.014Z,50.62
2023-10-21T08:06:25.028Z,56.25
2023-10-21T08:07:25.018Z,73.12
2023-10-21T08:08:25.019Z,78.75
2023-10-21T08:09:25.076Z,95.62
2023-10-21T08:10:24.963Z,112.50
2023-10-21T08:11:24.954Z,106.88
2023-10-21T08:12:24.977Z,112.50
2023-10-21T08:13:24.954Z,123.75
2023-10-21T08:14:24.916Z,129.38
2023-10-21T08:15:25.044Z,118.12
2023-10-21T08:16:24.911Z,95.62
2023-10-21T08:17:24.888Z,84.38
2023-10-21T08:18:24.999Z,73.12
2023-10-21T08:19:24.887Z,78.75
2023-10-21T08:20:24.893Z,84.38
2023-10-21T08:21:24.911Z,90.00
2023-10-21T08:22:24.824Z,95.62
2023-10-21T08:23:24.834Z,90.00
2023-10-21T08:24:24.923Z,106.88
2023-10-21T08:25:24.808Z,101.25
2023-10-21T08:26:24.808Z,101.25
2023-10-21T08:27:24.887Z,106.88
2023-10-21T08:28:24.762Z,140.62
2023-10-21T08:29:24.753Z,140.62
2023-10-21T08:30:24.797Z,140.62
2023-10-21T08:31:24.778Z,163.12
2023-10-21T08:32:24.747Z,151.88
2023-10-21T08:33:24.728Z,140.62
2023-10-21T08:34:24.741Z,140.62
2023-10-21T08:35:24.769Z,123.75
2023-10-21T08:36:24.801Z,135.00
2023-10-21T08:37:24.678Z,135.00
2023-10-21T08:38:24.667Z,123.75
2023-10-21T08:39:24.657Z,118.12
2023-10-21T08:40:24.687Z,129.38
2023-10-21T08:41:24.634Z,146.25
2023-10-21T08:42:25.443Z,146.25
2023-10-21T08:43:24.640Z,146.25
2023-10-21T08:44:24.591Z,140.62
2023-10-21T08:45:24.684Z,140.62
2023-10-21T08:46:24.615Z,163.12
2023-10-21T08:47:24.578Z,151.88
2023-10-21T08:48:24.585Z,140.62
2023-10-21T08:49:24.530Z,146.25
2023-10-21T08:50:24.573Z,151.88
2023-10-21T08:51:24.600Z,146.25
2023-10-21T08:52:24.523Z,140.62
2023-10-21T08:53:24.522Z,129.38
2023-10-21T08:54:24.517Z,146.25
2023-10-21T08:55:24.496Z,146.25
2023-10-21T08:56:24.460Z,146.25
2023-10-21T08:57:24.482Z,129.38
2023-10-21T08:58:24.489Z,123.75
2023-10-21T08:59:24.506Z,129.38
2023-10-21T09:00:24.574Z,129.38
2023-10-21T09:01:24.500Z,118.12
2023-10-21T09:02:24.448Z,118.12
2023-10-21T09:03:24.607Z,123.75
2023-10-21T09:04:24.656Z,129.38
2023-10-21T09:05:24.409Z,118.12
2023-10-21T09:06:24.442Z,118.12
2023-10-21T09:07:24.341Z,112.50
2023-10-21T09:08:24.343Z,101.25
2023-10-21T09:09:24.382Z,101.25
2023-10-21T09:10:24.305Z,101.25
2023-10-21T09:11:24.294Z,95.62
2023-10-21T09:12:24.279Z,90.00
2023-10-21T09:13:24.268Z,101.25
2023-10-21T09:14:24.294Z,123.75
2023-10-21T09:15:24.362Z,151.88
2023-10-21T09:16:24.296Z,157.50
2023-10-21T09:17:24.258Z,146.25
2023-10-21T09:18:24.277Z,146.25
2023-10-21T09:19:24.201Z,140.62
2023-10-21T09:20:24.194Z,135.00
2023-10-21T09:21:24.247Z,151.88
2023-10-21T09:22:24.185Z,157.50
2023-10-21T09:23:24.165Z,157.50
2023-10-21T09:24:24.297Z,157.50
2023-10-21T09:25:24.302Z,151.88
2023-10-21T09:26:24.162Z,135.00
2023-10-21T09:27:24.132Z,135.00
2023-10-21T09:28:24.125Z,151.88
2023-10-21T09:29:24.103Z,151.88
2023-10-21T09:30:24.182Z,168.75
2023-10-21T09:31:24.131Z,163.12
2023-10-21T09:32:24.069Z,146.25
2023-10-21T09:33:24.155Z,123.75
2023-10-21T09:34:24.044Z,112.50
2023-10-21T09:35:24.038Z,106.88
2023-10-21T09:36:24.166Z,106.88
2023-10-21T09:37:24.054Z,95.62
2023-10-21T09:38:24.063Z,90.00
2023-10-21T09:39:24.033Z,78.75
2023-10-21T09:40:24.006Z,67.50
2023-10-21T09:41:23.983Z,73.12
2023-10-21T09:42:25.394Z,78.75
2023-10-21T09:43:23.982Z,84.38
2023-10-21T09:44:23.964Z,90.00
2023-10-21T09:45:23.963Z,95.62
2023-10-21T09:46:23.953Z,95.62
2023-10-21T09:47:23.956Z,95.62
2023-10-21T09:48:26.372Z,101.25
2023-10-21T09:49:23.906Z,118.12
2023-10-21T09:50:23.868Z,129.38
2023-10-21T09:51:23.890Z,151.88
2023-10-21T09:52:23.848Z,174.38
2023-10-21T09:53:23.836Z,168.75
2023-10-21T09:54:25.725Z,247.50
2023-10-21T09:55:23.810Z,331.88
2023-10-21T09:56:23.820Z,326.25
2023-10-21T09:57:23.883Z,174.38
2023-10-21T09:58:23.786Z,140.62
2023-10-21T09:59:23.801Z,123.75
2023-10-21T10:00:23.791Z,129.38
2023-10-21T10:01:23.758Z,146.25
2023-10-21T10:02:23.815Z,163.12
2023-10-21T10:03:23.865Z,174.38
2023-10-21T10:04:23.920Z,163.12
2023-10-21T10:05:23.734Z,135.00
2023-10-21T10:06:30.370Z,112.50
2023-10-21T10:07:39.807Z,118.12
2023-10-21T10:08:24.688Z,135.00
2023-10-21T10:09:23.748Z,123.75
2023-10-21T10:10:23.659Z,129.38
2023-10-21T10:11:23.645Z,123.75
2023-10-21T10:12:23.730Z,106.88
2023-10-21T10:13:23.619Z,123.75
2023-10-21T10:14:23.614Z,140.62
2023-10-21T10:15:23.673Z,135.00
2023-10-21T10:16:23.712Z,163.12
2023-10-21T10:17:23.574Z,163.12
2023-10-21T10:18:23.724Z,151.88
2023-10-21T10:19:23.563Z,135.00
2023-10-21T10:20:23.599Z,118.12
2023-10-21T10:21:23.590Z,112.50
2023-10-21T10:22:23.566Z,146.25
2023-10-21T10:23:23.514Z,168.75
2023-10-21T10:24:23.656Z,157.50
2023-10-21T10:25:23.497Z,123.75
2023-10-21T10:26:23.494Z,129.38
2023-10-21T10:27:23.520Z,129.38
2023-10-21T10:28:23.491Z,140.62
2023-10-21T10:29:23.449Z,202.50
2023-10-21T10:30:23.510Z,208.12
2023-10-21T10:31:23.517Z,163.12
2023-10-21T10:32:23.420Z,157.50
2023-10-21T10:33:23.560Z,168.75
2023-10-21T10:34:23.394Z,219.38
2023-10-21T10:35:23.422Z,196.88
2023-10-21T10:36:23.471Z,151.88
2023-10-21T10:37:23.366Z,157.50
2023-10-21T10:38:23.361Z,185.62
2023-10-21T10:39:23.414Z,180.00
2023-10-21T10:40:23.353Z,180.00
2023-10-21T10:41:23.314Z,168.75
2023-10-21T10:42:23.386Z,202.50
2023-10-21T10:43:23.291Z,236.25
2023-10-21T10:44:23.329Z,236.25
2023-10-21T10:45:23.435Z,208.12
2023-10-21T10:46:23.318Z,213.75
2023-10-21T10:47:23.257Z,202.50
2023-10-21T10:48:23.297Z,157.50
2023-10-21T10:49:23.249Z,146.25
2023-10-21T10:50:23.223Z,140.62
2023-10-21T10:51:23.289Z,191.25
2023-10-21T10:52:23.192Z,219.38
2023-10-21T10:53:23.195Z,185.62
2023-10-21T10:54:23.216Z,151.88
2023-10-21T10:55:23.214Z,140.62
2023-10-21T10:56:23.188Z,157.50
2023-10-21T10:57:23.178Z,208.12
2023-10-21T10:58:23.136Z,236.25
2023-10-21T10:59:23.115Z,241.88
2023-10-21T11:00:23.200Z,241.88
2023-10-21T11:01:23.170Z,191.25
2023-10-21T11:02:25.121Z,180.00
2023-10-21T11:03:23.161Z,185.62
2023-10-21T11:04:23.090Z,174.38
2023-10-21T11:05:23.049Z,236.25
2023-10-21T11:06:23.115Z,236.25
2023-10-21T11:07:23.085Z,191.25
2023-10-21T11:08:23.070Z,101.25
2023-10-21T11:09:23.121Z,90.00
2023-10-21T11:10:23.143Z,84.38
2023-10-21T11:11:22.996Z,101.25
2023-10-21T11:12:23.010Z,135.00
2023-10-21T11:13:22.965Z,168.75
2023-10-21T11:14:22.957Z,208.12
2023-10-21T11:15:23.037Z,213.75
2023-10-21T11:16:23.042Z,191.25
2023-10-21T11:17:22.933Z,202.50
2023-10-21T11:18:22.944Z,191.25
2023-10-21T11:19:22.914Z,157.50
2023-10-21T11:20:22.899Z,129.38
2023-10-21T11:21:22.930Z,146.25
2023-10-21T11:22:22.876Z,157.50
2023-10-21T11:23:22.867Z,168.75
2023-10-21T11:24:22.889Z,163.12
2023-10-21T11:25:22.859Z,157.50
2023-10-21T11:26:22.862Z,151.88
2023-10-21T11:27:22.896Z,129.38
2023-10-21T11:28:22.807Z,118.12
2023-10-21T11:29:22.801Z,129.38
2023-10-21T11:30:22.803Z,118.12
2023-10-21T11:31:22.829Z,118.12
2023-10-21T11:32:22.855Z,118.12
2023-10-21T11:33:22.807Z,106.88
2023-10-21T11:34:22.862Z,151.88
2023-10-21T11:35:22.741Z,202.50
2023-10-21T11:36:22.736Z,157.50
2023-10-21T11:37:22.712Z,146.25
2023-10-21T11:38:22.698Z,135.00
2023-10-21T11:39:22.887Z,112.50
2023-10-21T11:40:22.690Z,78.75
2023-10-21T11:41:22.685Z,73.12
2023-10-21T11:42:22.699Z,78.75
2023-10-21T11:43:22.644Z,78.75
2023-10-21T11:44:22.637Z,90.00
2023-10-21T11:45:22.648Z,90.00
2023-10-21T11:46:22.674Z,61.88
2023-10-21T11:47:22.653Z,50.62
2023-10-21T11:48:22.721Z,73.12
2023-10-21T11:49:22.577Z,101.25
2023-10-21T11:50:22.572Z,78.75
2023-10-21T11:51:22.578Z,84.38
2023-10-21T11:52:22.559Z,106.88
2023-10-21T11:53:22.560Z,118.12
2023-10-21T11:54:22.556Z,129.38
2023-10-21T11:55:22.510Z,174.38
2023-10-21T11:56:22.502Z,174.38
2023-10-21T11:57:22.580Z,202.50
2023-10-21T11:58:22.507Z,151.88
2023-10-21T11:59:22.504Z,112.50
2023-10-21T12:00:22.513Z,129.38
2023-10-21T12:01:22.487Z,112.50
2023-10-21T12:02:22.449Z,112.50
2023-10-21T12:03:22.576Z,90.00
2023-10-21T12:04:22.589Z,95.62
2023-10-21T12:05:22.449Z,84.38
2023-10-21T12:06:22.433Z,78.75
2023-10-21T12:07:22.386Z,78.75
2023-10-21T12:08:22.381Z,95.62
2023-10-21T12:09:22.411Z,135.00
2023-10-21T12:10:22.383Z,180.00
2023-10-21T12:11:22.343Z,163.12
2023-10-21T12:12:22.354Z,129.38
2023-10-21T12:13:22.317Z,129.38
2023-10-21T12:14:22.308Z,129.38
2023-10-21T12:15:22.356Z,146.25
2023-10-21T12:16:22.382Z,140.62
2023-10-21T12:17:22.498Z,157.50
2023-10-21T12:18:24.191Z,123.75
2023-10-21T12:19:22.707Z,61.88
2023-10-21T12:20:22.320Z,56.25
2023-10-21T12:21:22.274Z,56.25
2023-10-21T12:22:24.054Z,61.88
2023-10-21T12:23:23.731Z,39.38
2023-10-21T12:24:22.234Z,56.25
2023-10-21T12:25:22.234Z,112.50
2023-10-21T12:26:22.179Z,151.88
2023-10-21T12:27:22.207Z,106.88
2023-10-21T12:28:22.185Z,73.12
2023-10-21T12:29:22.154Z,45.00
2023-10-21T12:30:22.179Z,56.25
2023-10-21T12:31:22.166Z,84.38
2023-10-21T12:32:22.113Z,61.88
2023-10-21T12:33:22.199Z,56.25
2023-10-21T12:34:22.091Z,45.00
2023-10-21T12:35:22.079Z,45.00
2023-10-21T12:36:22.160Z,45.00
2023-10-21T12:37:22.092Z,45.00
2023-10-21T12:38:22.080Z,45.00
2023-10-21T12:39:22.145Z,45.00
2023-10-21T12:40:22.021Z,50.62
2023-10-21T12:41:22.007Z,39.38
2023-10-21T12:42:22.039Z,39.38
2023-10-21T12:43:21.991Z,39.38
2023-10-21T12:44:22.075Z,56.25
2023-10-21T12:45:22.264Z,67.50
2023-10-21T12:46:22.038Z,61.88
2023-10-21T12:47:21.945Z,50.62
2023-10-21T12:48:21.978Z,50.62
2023-10-21T12:49:26.754Z,50.62
2023-10-21T12:50:22.910Z,50.62
2023-10-21T12:51:22.025Z,50.62
2023-10-21T12:52:21.917Z,50.62
2023-10-21T12:53:21.930Z,45.00
2023-10-21T12:54:21.941Z,45.00
2023-10-21T12:55:21.862Z,45.00
2023-10-21T12:56:21.883Z,45.00
2023-10-21T12:57:21.945Z,45.00